sensor_id;sensor_type;location;lat;lon;timestamp;pressure;altitude;pressure_sealevel;temperature;humidity
5877;BME280;2964;42.144;24.730;2023-03-01T00:02:04;143176.00;;;6.32;100.00
5877;BME280;2964;42.144;24.730;2023-03-01T00:04:31;143163.53;;;6.27;100.00
5877;BME280;2964;42.144;24.730;2023-03-01T00:06:59;143173.53;;;6.31;100.00
5877;BME280;2964;42.144;24.730;2023-03-01T00:09:27;143162.25;;;6.27;100.00
5877;BME280;2964;42.144;24.730;2023-03-01T00:11:53;143221.06;;;6.51;100.00
5877;BME280;2964;42.144;24.730;2023-03-01T00:14:20;143183.53;;;6.35;100.00
5877;BME280;2964;42.144;24.730;2023-03-01T00:16:47;143178.53;;;6.33;100.00
5877;BME280;2964;42.144;24.730;2023-03-01T00:19:15;143213.59;;;6.48;100.00
5877;BME280;2964;42.144;24.730;2023-03-01T00:21:42;143214.81;;;6.48;100.00
5877;BME280;2964;42.144;24.730;2023-03-01T00:24:09;143177.28;;;6.33;100.00
5877;BME280;2964;42.144;24.730;2023-03-01T00:26:37;143208.59;;;6.46;100.00
5877;BME280;2964;42.144;24.730;2023-03-01T00:29:04;143135.94;;;6.16;100.00
5877;BME280;2964;42.144;24.730;2023-03-01T00:31:32;143214.81;;;6.48;100.00
5877;BME280;2964;42.144;24.730;2023-03-01T00:34:01;143176.00;;;6.32;100.00
5877;BME280;2964;42.144;24.730;2023-03-01T00:36:30;143213.59;;;6.48;100.00
5877;BME280;2964;42.144;24.730;2023-03-01T00:38:58;143228.59;;;6.54;100.00
5877;BME280;2964;42.144;24.730;2023-03-01T00:41:25;143198.53;;;6.42;100.00
5877;BME280;2964;42.144;24.730;2023-03-01T00:43:54;143203.59;;;6.44;100.00
5877;BME280;2964;42.144;24.730;2023-03-01T00:46:23;143199.81;;;6.42;100.00
5877;BME280;2964;42.144;24.730;2023-03-01T00:48:50;143156.00;;;6.24;100.00
5877;BME280;2964;42.144;24.730;2023-03-01T00:51:18;143182.28;;;6.35;100.00
5877;BME280;2964;42.144;24.730;2023-03-01T00:53:46;143152.25;;;6.23;100.00
5877;BME280;2964;42.144;24.730;2023-03-01T00:56:14;143186.06;;;6.36;100.00
5877;BME280;2964;42.144;24.730;2023-03-01T00:58:41;143176.00;;;6.32;100.00
5877;BME280;2964;42.144;24.730;2023-03-01T01:01:11;143171.00;;;6.30;100.00
5877;BME280;2964;42.144;24.730;2023-03-01T01:03:43;143178.53;;;6.33;100.00
5877;BME280;2964;42.144;24.730;2023-03-01T01:06:13;143197.31;;;6.41;100.00
5877;BME280;2964;42.144;24.730;2023-03-01T01:08:40;143164.75;;;6.28;100.00
5877;BME280;2964;42.144;24.730;2023-03-01T01:11:08;143149.75;;;6.22;100.00
5877;BME280;2964;42.144;24.730;2023-03-01T01:13:35;143166.00;;;6.28;100.00
5877;BME280;2964;42.144;24.730;2023-03-01T01:16:03;143095.94;;;5.99;100.00
5877;BME280;2964;42.144;24.730;2023-03-01T01:18:31;143226.13;;;6.53;100.00
5877;BME280;2964;42.144;24.730;2023-03-01T01:21:02;143193.53;;;6.40;100.00
5877;BME280;2964;42.144;24.730;2023-03-01T01:23:29;143224.84;;;6.52;100.00
5877;BME280;2964;42.144;24.730;2023-03-01T01:25:56;143231.13;;;6.55;100.00
5877;BME280;2964;42.144;24.730;2023-03-01T01:28:23;143239.88;;;6.59;100.00
5877;BME280;2964;42.144;24.730;2023-03-01T01:30:49;143218.59;;;6.50;100.00
5877;BME280;2964;42.144;24.730;2023-03-01T01:33:16;143198.53;;;6.42;100.00
5877;BME280;2964;42.144;24.730;2023-03-01T01:35:46;143267.44;;;6.70;100.00
5877;BME280;2964;42.144;24.730;2023-03-01T01:38:12;143219.84;;;6.50;100.00
5877;BME280;2964;42.144;24.730;2023-03-01T01:40:43;143251.13;;;6.63;100.00
5877;BME280;2964;42.144;24.730;2023-03-01T01:43:18;143219.84;;;6.50;100.00
5877;BME280;2964;42.144;24.730;2023-03-01T01:45:45;143269.91;;;6.71;100.00
5877;BME280;2964;42.144;24.730;2023-03-01T01:48:15;143257.38;;;6.66;100.00
5877;BME280;2964;42.144;24.730;2023-03-01T01:50:43;143168.53;;;6.29;100.00
5877;BME280;2964;42.144;24.730;2023-03-01T01:53:16;143057.09;;;5.84;100.00
5877;BME280;2964;42.144;24.730;2023-03-01T01:55:47;143158.47;;;6.25;100.00
5877;BME280;2964;42.144;24.730;2023-03-01T01:58:18;143244.88;;;6.61;100.00
5877;BME280;2964;42.144;24.730;2023-03-01T02:00:45;143196.06;;;6.41;100.00
5877;BME280;2964;42.144;24.730;2023-03-01T02:03:14;143228.59;;;6.54;100.00
5877;BME280;2964;42.144;24.730;2023-03-01T02:05:47;143179.78;;;6.34;100.00
5877;BME280;2964;42.144;24.730;2023-03-01T02:08:19;143253.66;;;6.64;100.00
5877;BME280;2964;42.144;24.730;2023-03-01T02:10:48;143135.94;;;6.16;100.00
5877;BME280;2964;42.144;24.730;2023-03-01T02:13:16;143257.38;;;6.66;100.00
5877;BME280;2964;42.144;24.730;2023-03-01T02:15:42;143283.69;;;6.76;100.00
5877;BME280;2964;42.144;24.730;2023-03-01T02:18:12;143268.66;;;6.70;100.00
5877;BME280;2964;42.144;24.730;2023-03-01T02:20:47;143208.59;;;6.46;100.00
5877;BME280;2964;42.144;24.730;2023-03-01T02:23:18;143173.53;;;6.31;100.00
5877;BME280;2964;42.144;24.730;2023-03-01T02:25:51;143188.53;;;6.37;100.00
5877;BME280;2964;42.144;24.730;2023-03-01T02:28:24;143115.94;;;6.08;100.00
5877;BME280;2964;42.144;24.730;2023-03-01T02:30:53;143187.28;;;6.37;100.00
5877;BME280;2964;42.144;24.730;2023-03-01T02:33:38;143201.06;;;6.43;100.00
5877;BME280;2964;42.144;24.730;2023-03-01T02:36:08;143213.59;;;6.48;100.00
5877;BME280;2964;42.144;24.730;2023-03-01T02:38:36;143169.75;;;6.30;100.00
5877;BME280;2964;42.144;24.730;2023-03-01T02:41:04;143201.06;;;6.43;100.00
5877;BME280;2964;42.144;24.730;2023-03-01T02:43:34;143196.06;;;6.41;100.00
5877;BME280;2964;42.144;24.730;2023-03-01T02:46:05;143203.59;;;6.44;100.00
5877;BME280;2964;42.144;24.730;2023-03-01T02:48:41;143182.28;;;6.35;100.00
5877;BME280;2964;42.144;24.730;2023-03-01T02:51:22;143146.00;;;6.20;100.00
5877;BME280;2964;42.144;24.730;2023-03-01T02:53:59;143162.25;;;6.27;100.00
5877;BME280;2964;42.144;24.730;2023-03-01T02:56:28;143182.28;;;6.35;100.00
5877;BME280;2964;42.144;24.730;2023-03-01T02:58:56;143178.53;;;6.33;100.00
5877;BME280;2964;42.144;24.730;2023-03-01T03:01:26;143146.00;;;6.20;100.00
5877;BME280;2964;42.144;24.730;2023-03-01T03:04:02;143181.06;;;6.34;100.00
5877;BME280;2964;42.144;24.730;2023-03-01T03:06:29;143157.25;;;6.25;100.00
5877;BME280;2964;42.144;24.730;2023-03-01T03:08:56;143151.00;;;6.22;100.00
5877;BME280;2964;42.144;24.730;2023-03-01T03:11:23;143082.13;;;5.94;100.00
5877;BME280;2964;42.144;24.730;2023-03-01T03:13:49;143130.94;;;6.14;100.00
5877;BME280;2964;42.144;24.730;2023-03-01T03:16:19;143067.09;;;5.88;100.00
5877;BME280;2964;42.144;24.730;2023-03-01T03:18:46;143130.94;;;6.14;100.00
5877;BME280;2964;42.144;24.730;2023-03-01T03:21:13;143143.47;;;6.19;100.00
5877;BME280;2964;42.144;24.730;2023-03-01T03:23:40;143162.25;;;6.27;100.00
5877;BME280;2964;42.144;24.730;2023-03-01T03:26:07;143084.63;;;5.95;100.00
5877;BME280;2964;42.144;24.730;2023-03-01T03:28:34;143152.25;;;6.23;100.00
5877;BME280;2964;42.144;24.730;2023-03-01T03:31:06;143188.53;;;6.37;100.00
5877;BME280;2964;42.144;24.730;2023-03-01T03:33:34;143206.06;;;6.45;100.00
5877;BME280;2964;42.144;24.730;2023-03-01T03:36:01;143181.06;;;6.34;100.00
5877;BME280;2964;42.144;24.730;2023-03-01T03:38:28;143221.06;;;6.51;100.00
5877;BME280;2964;42.144;24.730;2023-03-01T03:41:00;143211.06;;;6.47;100.00
5877;BME280;2964;42.144;24.730;2023-03-01T03:43:28;143169.75;;;6.30;100.00
5877;BME280;2964;42.144;24.730;2023-03-01T03:45:55;143182.28;;;6.35;100.00
5877;BME280;2964;42.144;24.730;2023-03-01T03:48:23;143120.94;;;6.10;100.00
5877;BME280;2964;42.144;24.730;2023-03-01T03:50:52;143135.94;;;6.16;100.00
5877;BME280;2964;42.144;24.730;2023-03-01T03:53:22;143128.47;;;6.13;100.00
5877;BME280;2964;42.144;24.730;2023-03-01T03:55:48;143134.72;;;6.15;100.00
5877;BME280;2964;42.144;24.730;2023-03-01T03:58:33;143139.72;;;6.17;100.00
5877;BME280;2964;42.144;24.730;2023-03-01T04:01:00;143109.72;;;6.05;100.00
5877;BME280;2964;42.144;24.730;2023-03-01T04:03:28;143082.13;;;5.94;100.00
5877;BME280;2964;42.144;24.730;2023-03-01T04:05:57;143058.34;;;5.84;100.00
5877;BME280;2964;42.144;24.730;2023-03-01T04:08:24;143108.44;;;6.05;100.00
5877;BME280;2964;42.144;24.730;2023-03-01T04:10:53;143102.19;;;6.02;100.00
5877;BME280;2964;42.144;24.730;2023-03-01T04:13:23;143095.94;;;5.99;100.00
5877;BME280;2964;42.144;24.730;2023-03-01T04:15:51;143098.44;;;6.01;100.00
5877;BME280;2964;42.144;24.730;2023-03-01T04:18:20;143092.19;;;5.98;100.00
5877;BME280;2964;42.144;24.730;2023-03-01T04:20:47;143077.09;;;5.92;100.00
5877;BME280;2964;42.144;24.730;2023-03-01T04:23:16;143088.44;;;5.96;100.00
5877;BME280;2964;42.144;24.730;2023-03-01T04:25:47;143083.38;;;5.94;100.00
5877;BME280;2964;42.144;24.730;2023-03-01T04:28:18;143104.72;;;6.03;100.00
5877;BME280;2964;42.144;24.730;2023-03-01T04:30:45;143077.09;;;5.92;100.00
5877;BME280;2964;42.144;24.730;2023-03-01T04:33:12;143080.84;;;5.93;100.00
5877;BME280;2964;42.144;24.730;2023-03-01T04:35:38;143045.81;;;5.79;100.00
5877;BME280;2964;42.144;24.730;2023-03-01T04:38:05;143098.44;;;6.01;100.00
5877;BME280;2964;42.144;24.730;2023-03-01T04:40:34;143132.25;;;6.14;100.00
5877;BME280;2964;42.144;24.730;2023-03-01T04:43:01;143063.34;;;5.86;100.00
5877;BME280;2964;42.144;24.730;2023-03-01T04:45:28;143078.38;;;5.92;100.00
5877;BME280;2964;42.144;24.730;2023-03-01T04:47:54;143090.91;;;5.97;100.00
5877;BME280;2964;42.144;24.730;2023-03-01T04:50:23;143107.19;;;6.04;100.00
5877;BME280;2964;42.144;24.730;2023-03-01T04:52:51;143078.38;;;5.92;100.00
5877;BME280;2964;42.144;24.730;2023-03-01T04:55:18;143050.84;;;5.81;100.00
5877;BME280;2964;42.144;24.730;2023-03-01T04:57:46;143060.84;;;5.85;100.00
5877;BME280;2964;42.144;24.730;2023-03-01T05:00:14;143035.81;;;5.75;100.00
5877;BME280;2964;42.144;24.730;2023-03-01T05:02:52;143085.91;;;5.95;100.00
5877;BME280;2964;42.144;24.730;2023-03-01T05:05:25;143067.09;;;5.88;100.00
5877;BME280;2964;42.144;24.730;2023-03-01T05:07:54;143043.34;;;5.78;100.00
5877;BME280;2964;42.144;24.730;2023-03-01T05:10:21;143062.09;;;5.86;100.00
5877;BME280;2964;42.144;24.730;2023-03-01T05:12:49;143095.94;;;5.99;100.00
5877;BME280;2964;42.144;24.730;2023-03-01T05:15:17;143080.84;;;5.93;100.00
5877;BME280;2964;42.144;24.730;2023-03-01T05:17:44;143045.81;;;5.79;100.00
5877;BME280;2964;42.144;24.730;2023-03-01T05:20:11;143095.94;;;5.99;100.00
5877;BME280;2964;42.144;24.730;2023-03-01T05:22:38;143099.66;;;6.01;100.00
5877;BME280;2964;42.144;24.730;2023-03-01T05:25:05;143093.44;;;5.98;100.00
5877;BME280;2964;42.144;24.730;2023-03-01T05:27:33;143069.63;;;5.89;100.00
5877;BME280;2964;42.144;24.730;2023-03-01T05:30:02;143067.09;;;5.88;100.00
5877;BME280;2964;42.144;24.730;2023-03-01T05:32:40;143102.19;;;6.02;100.00
5877;BME280;2964;42.144;24.730;2023-03-01T05:35:08;143110.94;;;6.06;100.00
5877;BME280;2964;42.144;24.730;2023-03-01T05:37:35;143141.00;;;6.18;100.00
5877;BME280;2964;42.144;24.730;2023-03-01T05:40:03;143099.66;;;6.01;100.00
5877;BME280;2964;42.144;24.730;2023-03-01T05:42:30;143045.81;;;5.79;100.00
5877;BME280;2964;42.144;24.730;2023-03-01T05:44:57;143098.44;;;6.01;100.00
5877;BME280;2964;42.144;24.730;2023-03-01T05:47:25;143075.84;;;5.91;100.00
5877;BME280;2964;42.144;24.730;2023-03-01T05:49:52;143095.94;;;5.99;100.00
5877;BME280;2964;42.144;24.730;2023-03-01T05:52:18;143113.44;;;6.07;100.00
5877;BME280;2964;42.144;24.730;2023-03-01T05:54:45;143127.22;;;6.12;100.00
5877;BME280;2964;42.144;24.730;2023-03-01T05:57:11;143123.47;;;6.11;100.00
5877;BME280;2964;42.144;24.730;2023-03-01T05:59:38;143100.94;;;6.02;100.00
5877;BME280;2964;42.144;24.730;2023-03-01T06:02:05;143142.25;;;6.18;100.00
5877;BME280;2964;42.144;24.730;2023-03-01T06:04:33;143135.94;;;6.16;100.00
5877;BME280;2964;42.144;24.730;2023-03-01T06:07:00;143172.28;;;6.31;100.00
5877;BME280;2964;42.144;24.730;2023-03-01T06:09:26;143161.00;;;6.26;100.00
5877;BME280;2964;42.144;24.730;2023-03-01T06:11:53;143173.53;;;6.31;100.00
5877;BME280;2964;42.144;24.730;2023-03-01T06:14:20;143179.78;;;6.34;100.00
5877;BME280;2964;42.144;24.730;2023-03-01T06:16:46;143176.00;;;6.32;100.00
5877;BME280;2964;42.144;24.730;2023-03-01T06:19:13;143169.75;;;6.30;100.00
5877;BME280;2964;42.144;24.730;2023-03-01T06:21:41;143163.53;;;6.27;100.00
5877;BME280;2964;42.144;24.730;2023-03-01T06:24:08;143123.47;;;6.11;100.00
5877;BME280;2964;42.144;24.730;2023-03-01T06:26:34;143168.53;;;6.29;100.00
5877;BME280;2964;42.144;24.730;2023-03-01T06:29:01;143130.94;;;6.14;100.00
5877;BME280;2964;42.144;24.730;2023-03-01T06:31:28;143198.53;;;6.42;100.00
5877;BME280;2964;42.144;24.730;2023-03-01T06:33:55;143199.81;;;6.42;100.00
5877;BME280;2964;42.144;24.730;2023-03-01T06:36:21;143197.31;;;6.41;100.00
5877;BME280;2964;42.144;24.730;2023-03-01T06:38:49;143219.84;;;6.50;100.00
5877;BME280;2964;42.144;24.730;2023-03-01T06:41:16;143218.59;;;6.50;100.00
5877;BME280;2964;42.144;24.730;2023-03-01T06:43:43;143218.59;;;6.50;100.00
5877;BME280;2964;42.144;24.730;2023-03-01T06:46:09;143221.06;;;6.51;100.00
5877;BME280;2964;42.144;24.730;2023-03-01T06:48:36;143221.06;;;6.51;100.00
5877;BME280;2964;42.144;24.730;2023-03-01T06:51:03;143219.84;;;6.50;100.00
5877;BME280;2964;42.144;24.730;2023-03-01T06:53:30;143231.13;;;6.55;100.00
5877;BME280;2964;42.144;24.730;2023-03-01T06:55:58;143188.53;;;6.37;100.00
5877;BME280;2964;42.144;24.730;2023-03-01T06:58:25;143203.59;;;6.44;100.00
5877;BME280;2964;42.144;24.730;2023-03-01T07:00:52;143263.66;;;6.68;100.00
5877;BME280;2964;42.144;24.730;2023-03-01T07:03:19;143201.06;;;6.43;100.00
5877;BME280;2964;42.144;24.730;2023-03-01T07:05:48;143242.38;;;6.60;100.00
5877;BME280;2964;42.144;24.730;2023-03-01T07:08:17;143283.69;;;6.76;100.00
5877;BME280;2964;42.144;24.730;2023-03-01T07:10:44;143264.91;;;6.69;100.00
5877;BME280;2964;42.144;24.730;2023-03-01T07:13:12;143100.94;;;6.02;100.00
5877;BME280;2964;42.144;24.730;2023-03-01T07:15:40;143267.44;;;6.70;100.00
5877;BME280;2964;42.144;24.730;2023-03-01T07:18:06;143343.81;;;7.01;100.00
5877;BME280;2964;42.144;24.730;2023-03-01T07:20:33;143311.22;;;6.88;100.00
5877;BME280;2964;42.144;24.730;2023-03-01T07:23:01;143335.03;;;6.98;100.00
5877;BME280;2964;42.144;24.730;2023-03-01T07:25:27;143307.50;;;6.86;100.00
5877;BME280;2964;42.144;24.730;2023-03-01T07:27:54;143328.75;;;6.95;100.00
5877;BME280;2964;42.144;24.730;2023-03-01T07:30:22;143342.53;;;7.01;100.00
5877;BME280;2964;42.144;24.730;2023-03-01T07:32:51;143313.75;;;6.89;100.00
5877;BME280;2964;42.144;24.730;2023-03-01T07:35:18;143343.81;;;7.01;100.00
5877;BME280;2964;42.144;24.730;2023-03-01T07:37:44;143353.81;;;7.05;100.00
5877;BME280;2964;42.144;24.730;2023-03-01T07:40:12;143382.63;;;7.17;100.00
5877;BME280;2964;42.144;24.730;2023-03-01T07:42:38;143406.44;;;7.27;100.00
5877;BME280;2964;42.144;24.730;2023-03-01T07:45:06;143351.28;;;7.04;100.00
5877;BME280;2964;42.144;24.730;2023-03-01T07:47:34;143431.47;;;7.37;100.00
5877;BME280;2964;42.144;24.730;2023-03-01T07:50:01;143391.38;;;7.21;100.00
5877;BME280;2964;42.144;24.730;2023-03-01T07:52:29;143449.00;;;7.44;100.00
5877;BME280;2964;42.144;24.730;2023-03-01T07:54:56;143411.44;;;7.29;100.00
5877;BME280;2964;42.144;24.730;2023-03-01T07:57:23;143276.19;;;6.73;100.00
5877;BME280;2964;42.144;24.730;2023-03-01T07:59:50;143445.25;;;7.43;100.00
5877;BME280;2964;42.144;24.730;2023-03-01T08:02:16;143437.75;;;7.40;100.00
5877;BME280;2964;42.144;24.730;2023-03-01T08:04:44;143415.22;;;7.30;100.00
5877;BME280;2964;42.144;24.730;2023-03-01T08:07:11;143396.38;;;7.23;100.00
5877;BME280;2964;42.144;24.730;2023-03-01T08:09:38;143412.69;;;7.29;100.00
5877;BME280;2964;42.144;24.730;2023-03-01T08:12:05;143440.25;;;7.41;100.00
5877;BME280;2964;42.144;24.730;2023-03-01T08:14:32;143403.91;;;7.26;100.00
5877;BME280;2964;42.144;24.730;2023-03-01T08:16:59;143451.53;;;7.45;100.00
5877;BME280;2964;42.144;24.730;2023-03-01T08:19:28;143442.78;;;7.42;100.00
5877;BME280;2964;42.144;24.730;2023-03-01T08:21:56;143179.78;;;6.34;100.00
5877;BME280;2964;42.144;24.730;2023-03-01T08:24:25;143434.00;;;7.38;100.00
5877;BME280;2964;42.144;24.730;2023-03-01T08:26:52;143423.94;;;7.34;100.00
5877;BME280;2964;42.144;24.730;2023-03-01T08:29:19;143422.69;;;7.33;100.00
5877;BME280;2964;42.144;24.730;2023-03-01T08:31:46;143386.38;;;7.19;100.00
5877;BME280;2964;42.144;24.730;2023-03-01T08:34:15;143449.00;;;7.44;100.00
5877;BME280;2964;42.144;24.730;2023-03-01T08:36:44;143391.38;;;7.21;100.00
5877;BME280;2964;42.144;24.730;2023-03-01T08:39:15;143425.22;;;7.34;100.00
5877;BME280;2964;42.144;24.730;2023-03-01T08:41:42;143466.56;;;7.51;100.00
5877;BME280;2964;42.144;24.730;2023-03-01T08:44:09;143401.38;;;7.25;100.00
5877;BME280;2964;42.144;24.730;2023-03-01T08:46:38;143378.84;;;7.15;100.00
5877;BME280;2964;42.144;24.730;2023-03-01T08:49:07;143398.91;;;7.24;100.00
5877;BME280;2964;42.144;24.730;2023-03-01T08:51:36;143477.81;;;7.56;100.00
5877;BME280;2964;42.144;24.730;2023-03-01T08:54:04;143476.56;;;7.56;100.00
5877;BME280;2964;42.144;24.730;2023-03-01T08:56:32;143396.38;;;7.23;100.00
5877;BME280;2964;42.144;24.730;2023-03-01T08:58:59;143481.59;;;7.58;100.00
5877;BME280;2964;42.144;24.730;2023-03-01T09:01:26;143371.38;;;7.12;100.00
5877;BME280;2964;42.144;24.730;2023-03-01T09:03:53;143425.22;;;7.34;100.00
5877;BME280;2964;42.144;24.730;2023-03-01T09:06:20;143426.47;;;7.35;100.00
5877;BME280;2964;42.144;24.730;2023-03-01T09:08:48;143449.00;;;7.44;100.00
5877;BME280;2964;42.144;24.730;2023-03-01T09:11:19;143447.78;;;7.44;100.00
5877;BME280;2964;42.144;24.730;2023-03-01T09:13:48;143450.25;;;7.45;100.00
5877;BME280;2964;42.144;24.730;2023-03-01T09:16:16;143457.78;;;7.48;100.00
5877;BME280;2964;42.144;24.730;2023-03-01T09:18:43;143480.34;;;7.57;100.00
5877;BME280;2964;42.144;24.730;2023-03-01T09:21:12;143385.13;;;7.18;100.00
5877;BME280;2964;42.144;24.730;2023-03-01T09:23:40;143510.44;;;7.69;100.00
5877;BME280;2964;42.144;24.730;2023-03-01T09:26:07;143484.13;;;7.59;100.00
5877;BME280;2964;42.144;24.730;2023-03-01T09:28:34;143505.44;;;7.67;100.00
5877;BME280;2964;42.144;24.730;2023-03-01T09:31:03;143479.09;;;7.57;100.00
5877;BME280;2964;42.144;24.730;2023-03-01T09:33:31;143482.88;;;7.58;100.00
5877;BME280;2964;42.144;24.730;2023-03-01T09:35:59;143484.13;;;7.59;100.00
5877;BME280;2964;42.144;24.730;2023-03-01T09:38:26;143511.66;;;7.70;100.00
5877;BME280;2964;42.144;24.730;2023-03-01T09:40:53;143494.13;;;7.63;100.00
5877;BME280;2964;42.144;24.730;2023-03-01T09:43:25;143524.22;;;7.75;100.00
5877;BME280;2964;42.144;24.730;2023-03-01T09:45:54;143507.91;;;7.68;100.00
5877;BME280;2964;42.144;24.730;2023-03-01T09:48:26;143527.97;;;7.77;100.00
5877;BME280;2964;42.144;24.730;2023-03-01T09:50:53;143578.09;;;7.97;100.00
5877;BME280;2964;42.144;24.730;2023-03-01T09:53:22;143530.47;;;7.78;100.00
5877;BME280;2964;42.144;24.730;2023-03-01T09:55:54;143479.09;;;7.57;100.00
5877;BME280;2964;42.144;24.730;2023-03-01T09:58:33;143366.34;;;7.10;100.00
5877;BME280;2964;42.144;24.730;2023-03-01T10:01:06;143479.09;;;7.57;100.00
5877;BME280;2964;42.144;24.730;2023-03-01T10:03:42;143451.53;;;7.45;100.00
5877;BME280;2964;42.144;24.730;2023-03-01T10:06:14;143407.69;;;7.27;100.00
5877;BME280;2964;42.144;24.730;2023-03-01T10:08:50;143519.22;;;7.73;100.00
5877;BME280;2964;42.144;24.730;2023-03-01T10:11:22;143549.25;;;7.85;100.00
5877;BME280;2964;42.144;24.730;2023-03-01T10:13:56;143524.22;;;7.75;100.00
5877;BME280;2964;42.144;24.730;2023-03-01T10:16:28;143506.66;;;7.68;100.00
5877;BME280;2964;42.144;24.730;2023-03-01T10:19:03;143436.47;;;7.39;100.00
5877;BME280;2964;42.144;24.730;2023-03-01T10:21:37;143454.03;;;7.46;100.00
5877;BME280;2964;42.144;24.730;2023-03-01T10:24:10;143516.69;;;7.72;100.00
5877;BME280;2964;42.144;24.730;2023-03-01T10:26:48;143484.13;;;7.59;100.00
5877;BME280;2964;42.144;24.730;2023-03-01T10:29:23;143499.13;;;7.65;100.00
5877;BME280;2964;42.144;24.730;2023-03-01T10:31:52;143502.91;;;7.66;100.00
5877;BME280;2964;42.144;24.730;2023-03-01T10:34:26;143565.56;;;7.92;100.00
5877;BME280;2964;42.144;24.730;2023-03-01T10:36:57;143583.13;;;7.99;100.00
5877;BME280;2964;42.144;24.730;2023-03-01T10:39:25;143568.09;;;7.93;100.00
5877;BME280;2964;42.144;24.730;2023-03-01T10:41:55;143559.31;;;7.89;100.00
5877;BME280;2964;42.144;24.730;2023-03-01T10:44:37;143541.75;;;7.82;100.00
5877;BME280;2964;42.144;24.730;2023-03-01T10:47:07;143449.00;;;7.44;100.00
5877;BME280;2964;42.144;24.730;2023-03-01T10:49:52;143491.66;;;7.62;100.00
5877;BME280;2964;42.144;24.730;2023-03-01T10:52:21;143456.56;;;7.47;100.00
5877;BME280;2964;42.144;24.730;2023-03-01T10:54:54;143469.09;;;7.52;100.00
5877;BME280;2964;42.144;24.730;2023-03-01T10:57:35;143412.69;;;7.29;100.00
5877;BME280;2964;42.144;24.730;2023-03-01T11:00:21;143383.91;;;7.18;100.00
5877;BME280;2964;42.144;24.730;2023-03-01T11:02:50;143307.50;;;6.86;100.00
5877;BME280;2964;42.144;24.730;2023-03-01T11:05:22;143373.84;;;7.13;100.00
5877;BME280;2964;42.144;24.730;2023-03-01T11:07:52;143341.28;;;7.00;100.00
5877;BME280;2964;42.144;24.730;2023-03-01T11:10:22;143348.81;;;7.03;100.00
5877;BME280;2964;42.144;24.730;2023-03-01T11:12:50;143376.38;;;7.14;100.00
5877;BME280;2964;42.144;24.730;2023-03-01T11:15:23;143393.91;;;7.22;100.00
5877;BME280;2964;42.144;24.730;2023-03-01T11:17:51;143350.06;;;7.04;100.00
5877;BME280;2964;42.144;24.730;2023-03-01T11:20:25;143368.84;;;7.11;100.00
5877;BME280;2964;42.144;24.730;2023-03-01T11:22:54;143226.13;;;6.53;100.00
5877;BME280;2964;42.144;24.730;2023-03-01T11:25:25;143371.38;;;7.12;100.00
5877;BME280;2964;42.144;24.730;2023-03-01T11:27:53;143441.47;;;7.41;100.00
5877;BME280;2964;42.144;24.730;2023-03-01T11:30:24;143440.25;;;7.41;100.00
5877;BME280;2964;42.144;24.730;2023-03-01T11:33:03;143410.16;;;7.28;100.00
5877;BME280;2964;42.144;24.730;2023-03-01T11:35:34;143423.94;;;7.34;100.00
5877;BME280;2964;42.144;24.730;2023-03-01T11:38:15;143426.47;;;7.35;100.00
5877;BME280;2964;42.144;24.730;2023-03-01T11:40:47;143454.03;;;7.46;100.00
5877;BME280;2964;42.144;24.730;2023-03-01T11:43:22;143459.03;;;7.48;100.00
5877;BME280;2964;42.144;24.730;2023-03-01T11:46:08;143481.59;;;7.58;100.00
5877;BME280;2964;42.144;24.730;2023-03-01T11:48:53;143515.44;;;7.71;100.00
5877;BME280;2964;42.144;24.730;2023-03-01T11:51:38;143481.59;;;7.58;100.00
5877;BME280;2964;42.144;24.730;2023-03-01T11:54:18;143509.16;;;7.69;100.00
5877;BME280;2964;42.144;24.730;2023-03-01T11:56:52;143522.94;;;7.74;100.00
5877;BME280;2964;42.144;24.730;2023-03-01T11:59:54;143489.13;;;7.61;100.00
5877;BME280;2964;42.144;24.730;2023-03-01T12:02:46;143499.13;;;7.65;100.00
5877;BME280;2964;42.144;24.730;2023-03-01T12:05:59;143533.00;;;7.79;100.00
5877;BME280;2964;42.144;24.730;2023-03-01T12:08:35;143524.22;;;7.75;100.00
5877;BME280;2964;42.144;24.730;2023-03-01T12:11:10;143551.78;;;7.86;100.00
5877;BME280;2964;42.144;24.730;2023-03-01T12:14:09;143550.53;;;7.86;100.00
5877;BME280;2964;42.144;24.730;2023-03-01T12:17:00;143527.97;;;7.77;100.00
5877;BME280;2964;42.144;24.730;2023-03-01T12:19:43;143548.00;;;7.85;100.00
5877;BME280;2964;42.144;24.730;2023-03-01T12:22:28;143591.88;;;8.03;100.00
5877;BME280;2964;42.144;24.730;2023-03-01T12:25:12;143576.81;;;7.97;100.00
5877;BME280;2964;42.144;24.730;2023-03-01T12:27:55;143535.47;;;7.80;100.00
5877;BME280;2964;42.144;24.730;2023-03-01T12:30:35;143565.56;;;7.92;100.00
5877;BME280;2964;42.144;24.730;2023-03-01T12:33:15;143529.22;;;7.77;100.00
5877;BME280;2964;42.144;24.730;2023-03-01T12:35:58;143555.53;;;7.88;100.00
5877;BME280;2964;42.144;24.730;2023-03-01T12:38:40;143558.03;;;7.89;100.00
5877;BME280;2964;42.144;24.730;2023-03-01T12:44:30;143555.53;;;7.88;100.00
5877;BME280;2964;42.144;24.730;2023-03-01T12:47:27;143511.66;;;7.70;100.00
5877;BME280;2964;42.144;24.730;2023-03-01T12:50:00;143506.66;;;7.68;100.00
5877;BME280;2964;42.144;24.730;2023-03-01T12:52:35;143506.66;;;7.68;100.00
5877;BME280;2964;42.144;24.730;2023-03-01T12:55:16;143540.47;;;7.82;100.00
5877;BME280;2964;42.144;24.730;2023-03-01T12:57:49;143524.22;;;7.75;100.00
5877;BME280;2964;42.144;24.730;2023-03-01T13:00:27;143484.13;;;7.59;100.00
5877;BME280;2964;42.144;24.730;2023-03-01T13:03:01;143529.22;;;7.77;100.00
5877;BME280;2964;42.144;24.730;2023-03-01T13:05:40;143533.00;;;7.79;100.00
5877;BME280;2964;42.144;24.730;2023-03-01T13:08:15;143486.59;;;7.60;100.00
5877;BME280;2964;42.144;24.730;2023-03-01T13:10:47;143444.00;;;7.42;100.00
5877;BME280;2964;42.144;24.730;2023-03-01T13:13:20;143386.38;;;7.19;100.00
5877;BME280;2964;42.144;24.730;2023-03-01T13:15:49;143449.00;;;7.44;100.00
5877;BME280;2964;42.144;24.730;2023-03-01T13:18:40;143507.91;;;7.68;100.00
5877;BME280;2964;42.144;24.730;2023-03-01T13:21:07;143471.56;;;7.53;100.00